sensor_id;sensor_type;location;lat;lon;timestamp;P1;durP1;ratioP1;P2;durP2;ratioP2
19747;SDS011;10032;51.386;12.516;2023-02-24T00:01:31;18.40;;;9.20;;
19747;SDS011;10032;51.386;12.516;2023-02-24T00:04:02;16.77;;;11.30;;
19747;SDS011;10032;51.386;12.516;2023-02-24T00:06:31;18.83;;;10.87;;
19747;SDS011;10032;51.386;12.516;2023-02-24T00:09:05;15.63;;;10.37;;
19747;SDS011;10032;51.386;12.516;2023-02-24T00:11:36;17.23;;;11.23;;
19747;SDS011;10032;51.386;12.516;2023-02-24T00:14:06;13.40;;;8.73;;
19747;SDS011;10032;51.386;12.516;2023-02-24T00:16:33;15.83;;;10.33;;
19747;SDS011;10032;51.386;12.516;2023-02-24T00:18:59;17.77;;;9.67;;
19747;SDS011;10032;51.386;12.516;2023-02-24T00:21:26;17.77;;;9.97;;
19747;SDS011;10032;51.386;12.516;2023-02-24T00:23:52;14.03;;;9.27;;
19747;SDS011;10032;51.386;12.516;2023-02-24T00:26:18;12.80;;;8.60;;
19747;SDS011;10032;51.386;12.516;2023-02-24T00:28:44;16.30;;;9.73;;
19747;SDS011;10032;51.386;12.516;2023-02-24T00:31:11;13.13;;;9.00;;
19747;SDS011;10032;51.386;12.516;2023-02-24T00:33:40;16.77;;;9.57;;
19747;SDS011;10032;51.386;12.516;2023-02-24T00:36:07;14.20;;;10.43;;
19747;SDS011;10032;51.386;12.516;2023-02-24T00:38:47;16.17;;;9.40;;
19747;SDS011;10032;51.386;12.516;2023-02-24T00:41:19;14.00;;;9.53;;
19747;SDS011;10032;51.386;12.516;2023-02-24T00:43:46;15.97;;;9.03;;
19747;SDS011;10032;51.386;12.516;2023-02-24T00:46:17;14.13;;;8.67;;
19747;SDS011;10032;51.386;12.516;2023-02-24T00:48:45;19.73;;;8.90;;
19747;SDS011;10032;51.386;12.516;2023-02-24T00:51:19;15.57;;;8.30;;
19747;SDS011;10032;51.386;12.516;2023-02-24T00:53:48;17.97;;;9.97;;
19747;SDS011;10032;51.386;12.516;2023-02-24T00:56:14;17.37;;;9.30;;
19747;SDS011;10032;51.386;12.516;2023-02-24T00:58:40;14.43;;;9.70;;
19747;SDS011;10032;51.386;12.516;2023-02-24T01:01:14;13.43;;;8.90;;
19747;SDS011;10032;51.386;12.516;2023-02-24T01:03:42;12.10;;;7.77;;
19747;SDS011;10032;51.386;12.516;2023-02-24T01:06:08;15.23;;;9.83;;
19747;SDS011;10032;51.386;12.516;2023-02-24T01:08:36;18.90;;;8.77;;
19747;SDS011;10032;51.386;12.516;2023-02-24T01:11:04;19.60;;;8.63;;
19747;SDS011;10032;51.386;12.516;2023-02-24T01:13:48;16.47;;;9.43;;
19747;SDS011;10032;51.386;12.516;2023-02-24T01:16:14;17.50;;;8.77;;
19747;SDS011;10032;51.386;12.516;2023-02-24T01:18:45;20.93;;;11.27;;
19747;SDS011;10032;51.386;12.516;2023-02-24T01:21:17;21.00;;;9.87;;
19747;SDS011;10032;51.386;12.516;2023-02-24T01:23:47;24.17;;;10.23;;
19747;SDS011;10032;51.386;12.516;2023-02-24T01:26:14;24.17;;;11.47;;
19747;SDS011;10032;51.386;12.516;2023-02-24T01:28:41;22.67;;;10.30;;
19747;SDS011;10032;51.386;12.516;2023-02-24T01:31:07;20.27;;;11.03;;
19747;SDS011;10032;51.386;12.516;2023-02-24T01:33:33;22.47;;;11.47;;
19747;SDS011;10032;51.386;12.516;2023-02-24T01:36:08;25.07;;;12.03;;
19747;SDS011;10032;51.386;12.516;2023-02-24T01:38:34;27.03;;;12.10;;
19747;SDS011;10032;51.386;12.516;2023-02-24T01:41:01;24.47;;;12.33;;
19747;SDS011;10032;51.386;12.516;2023-02-24T01:43:29;26.57;;;12.30;;
19747;SDS011;10032;51.386;12.516;2023-02-24T01:45:55;23.23;;;11.37;;
19747;SDS011;10032;51.386;12.516;2023-02-24T01:48:21;31.73;;;15.53;;
19747;SDS011;10032;51.386;12.516;2023-02-24T01:50:48;23.73;;;10.70;;
19747;SDS011;10032;51.386;12.516;2023-02-24T01:53:16;21.50;;;12.13;;
19747;SDS011;10032;51.386;12.516;2023-02-24T01:55:45;23.57;;;11.03;;
19747;SDS011;10032;51.386;12.516;2023-02-24T01:58:18;32.77;;;11.40;;
19747;SDS011;10032;51.386;12.516;2023-02-24T02:00:47;25.13;;;10.50;;
19747;SDS011;10032;51.386;12.516;2023-02-24T02:03:15;24.87;;;11.10;;
19747;SDS011;10032;51.386;12.516;2023-02-24T02:05:44;19.63;;;10.27;;
19747;SDS011;10032;51.386;12.516;2023-02-24T02:08:12;23.00;;;9.53;;
19747;SDS011;10032;51.386;12.516;2023-02-24T02:10:41;20.27;;;9.73;;
19747;SDS011;10032;51.386;12.516;2023-02-24T02:13:08;26.73;;;11.90;;
19747;SDS011;10032;51.386;12.516;2023-02-24T02:15:40;27.50;;;9.93;;
19747;SDS011;10032;51.386;12.516;2023-02-24T02:18:15;20.47;;;10.47;;
19747;SDS011;10032;51.386;12.516;2023-02-24T02:23:53;8.77;;;4.57;;
19747;SDS011;10032;51.386;12.516;2023-02-24T02:26:39;10.70;;;4.47;;
19747;SDS011;10032;51.386;12.516;2023-02-24T02:29:25;9.57;;;4.63;;
19747;SDS011;10032;51.386;12.516;2023-02-24T02:35:00;4.67;;;3.20;;
19747;SDS011;10032;51.386;12.516;2023-02-24T02:37:42;10.13;;;4.20;;
19747;SDS011;10032;51.386;12.516;2023-02-24T02:40:20;7.73;;;3.83;;
19747;SDS011;10032;51.386;12.516;2023-02-24T02:42:57;7.60;;;3.43;;
19747;SDS011;10032;51.386;12.516;2023-02-24T02:45:42;8.93;;;4.10;;
19747;SDS011;10032;51.386;12.516;2023-02-24T02:48:16;13.30;;;3.40;;
19747;SDS011;10032;51.386;12.516;2023-02-24T02:50:53;6.87;;;2.73;;
19747;SDS011;10032;51.386;12.516;2023-02-24T02:58:39;10.73;;;2.87;;
19747;SDS011;10032;51.386;12.516;2023-02-24T03:01:10;8.90;;;2.90;;
19747;SDS011;10032;51.386;12.516;2023-02-24T03:03:41;13.27;;;2.90;;
19747;SDS011;10032;51.386;12.516;2023-02-24T03:06:20;7.53;;;3.23;;
19747;SDS011;10032;51.386;12.516;2023-02-24T03:08:50;11.10;;;3.47;;
19747;SDS011;10032;51.386;12.516;2023-02-24T03:11:25;14.93;;;3.10;;
19747;SDS011;10032;51.386;12.516;2023-02-24T03:13:53;9.40;;;3.13;;
19747;SDS011;10032;51.386;12.516;2023-02-24T03:16:22;5.83;;;3.10;;
19747;SDS011;10032;51.386;12.516;2023-02-24T03:18:55;8.20;;;3.10;;
19747;SDS011;10032;51.386;12.516;2023-02-24T03:23:57;11.27;;;3.13;;
19747;SDS011;10032;51.386;12.516;2023-02-24T03:26:25;9.00;;;4.10;;
19747;SDS011;10032;51.386;12.516;2023-02-24T03:29:16;4.83;;;2.97;;
19747;SDS011;10032;51.386;12.516;2023-02-24T03:31:51;7.50;;;3.07;;
19747;SDS011;10032;51.386;12.516;2023-02-24T03:37:04;11.53;;;3.80;;
19747;SDS011;10032;51.386;12.516;2023-02-24T03:39:29;7.20;;;2.87;;
19747;SDS011;10032;51.386;12.516;2023-02-24T03:42:02;8.13;;;3.10;;
19747;SDS011;10032;51.386;12.516;2023-02-24T03:44:31;9.90;;;3.90;;
19747;SDS011;10032;51.386;12.516;2023-02-24T03:46:57;14.97;;;3.93;;
19747;SDS011;10032;51.386;12.516;2023-02-24T03:49:22;18.23;;;4.03;;
19747;SDS011;10032;51.386;12.516;2023-02-24T03:52:07;14.80;;;4.50;;
19747;SDS011;10032;51.386;12.516;2023-02-24T03:54:51;11.90;;;4.27;;
19747;SDS011;10032;51.386;12.516;2023-02-24T04:08:46;11.07;;;3.53;;
19747;SDS011;10032;51.386;12.516;2023-02-24T04:11:26;6.60;;;2.87;;
19747;SDS011;10032;51.386;12.516;2023-02-24T04:13:59;11.07;;;3.73;;
19747;SDS011;10032;51.386;12.516;2023-02-24T04:16:33;6.70;;;2.70;;
19747;SDS011;10032;51.386;12.516;2023-02-24T04:19:07;7.97;;;2.60;;
19747;SDS011;10032;51.386;12.516;2023-02-24T04:21:42;8.00;;;2.93;;
19747;SDS011;10032;51.386;12.516;2023-02-24T04:24:12;6.40;;;2.30;;
19747;SDS011;10032;51.386;12.516;2023-02-24T04:26:44;10.40;;;2.60;;
19747;SDS011;10032;51.386;12.516;2023-02-24T04:29:12;4.37;;;2.07;;
19747;SDS011;10032;51.386;12.516;2023-02-24T04:31:56;6.57;;;2.17;;
19747;SDS011;10032;51.386;12.516;2023-02-24T04:34:27;9.17;;;2.50;;
19747;SDS011;10032;51.386;12.516;2023-02-24T04:36:56;8.00;;;2.47;;
19747;SDS011;10032;51.386;12.516;2023-02-24T04:39:23;9.23;;;2.70;;
19747;SDS011;10032;51.386;12.516;2023-02-24T04:41:49;6.20;;;2.63;;
19747;SDS011;10032;51.386;12.516;2023-02-24T04:44:16;12.17;;;3.17;;
19747;SDS011;10032;51.386;12.516;2023-02-24T04:46:45;9.10;;;3.07;;
19747;SDS011;10032;51.386;12.516;2023-02-24T04:49:13;7.50;;;2.53;;
19747;SDS011;10032;51.386;12.516;2023-02-24T04:51:40;5.30;;;2.33;;
19747;SDS011;10032;51.386;12.516;2023-02-24T04:54:10;9.93;;;2.97;;
19747;SDS011;10032;51.386;12.516;2023-02-24T04:56:41;7.57;;;2.23;;
19747;SDS011;10032;51.386;12.516;2023-02-24T04:59:12;6.67;;;2.50;;
19747;SDS011;10032;51.386;12.516;2023-02-24T05:01:38;5.87;;;2.70;;
19747;SDS011;10032;51.386;12.516;2023-02-24T05:04:06;7.43;;;2.60;;
19747;SDS011;10032;51.386;12.516;2023-02-24T05:06:32;7.23;;;2.60;;
19747;SDS011;10032;51.386;12.516;2023-02-24T05:08:58;5.30;;;2.30;;
19747;SDS011;10032;51.386;12.516;2023-02-24T05:11:25;5.97;;;2.10;;
19747;SDS011;10032;51.386;12.516;2023-02-24T05:13:58;5.87;;;2.57;;
19747;SDS011;10032;51.386;12.516;2023-02-24T05:16:24;6.20;;;2.83;;
19747;SDS011;10032;51.386;12.516;2023-02-24T05:18:52;8.13;;;2.47;;
19747;SDS011;10032;51.386;12.516;2023-02-24T05:21:38;10.33;;;1.90;;
19747;SDS011;10032;51.386;12.516;2023-02-24T05:24:05;7.33;;;2.20;;
19747;SDS011;10032;51.386;12.516;2023-02-24T05:26:32;7.87;;;3.07;;
19747;SDS011;10032;51.386;12.516;2023-02-24T05:29:00;6.37;;;1.87;;
19747;SDS011;10032;51.386;12.516;2023-02-24T05:31:28;5.70;;;2.30;;
19747;SDS011;10032;51.386;12.516;2023-02-24T05:33:56;16.87;;;3.50;;
19747;SDS011;10032;51.386;12.516;2023-02-24T05:36:24;10.20;;;2.60;;
19747;SDS011;10032;51.386;12.516;2023-02-24T05:38:52;8.23;;;2.73;;
19747;SDS011;10032;51.386;12.516;2023-02-24T05:41:22;7.50;;;2.37;;
19747;SDS011;10032;51.386;12.516;2023-02-24T05:43:56;7.77;;;2.00;;
19747;SDS011;10032;51.386;12.516;2023-02-24T05:46:26;6.07;;;2.43;;
19747;SDS011;10032;51.386;12.516;2023-02-24T05:48:57;10.07;;;2.60;;
19747;SDS011;10032;51.386;12.516;2023-02-24T05:51:28;5.17;;;2.23;;
19747;SDS011;10032;51.386;12.516;2023-02-24T05:54:03;9.00;;;3.10;;
19747;SDS011;10032;51.386;12.516;2023-02-24T05:56:33;10.03;;;2.40;;
19747;SDS011;10032;51.386;12.516;2023-02-24T05:59:01;8.17;;;3.77;;
19747;SDS011;10032;51.386;12.516;2023-02-24T06:01:29;7.53;;;2.40;;
19747;SDS011;10032;51.386;12.516;2023-02-24T06:04:00;13.10;;;3.30;;
19747;SDS011;10032;51.386;12.516;2023-02-24T06:06:35;7.20;;;2.93;;
19747;SDS011;10032;51.386;12.516;2023-02-24T06:09:05;9.77;;;2.80;;
19747;SDS011;10032;51.386;12.516;2023-02-24T06:11:34;7.50;;;2.73;;
19747;SDS011;10032;51.386;12.516;2023-02-24T06:14:01;7.67;;;2.57;;
19747;SDS011;10032;51.386;12.516;2023-02-24T06:16:27;10.67;;;4.13;;
19747;SDS011;10032;51.386;12.516;2023-02-24T06:18:53;19.27;;;5.77;;
19747;SDS011;10032;51.386;12.516;2023-02-24T06:21:22;10.73;;;4.73;;
19747;SDS011;10032;51.386;12.516;2023-02-24T06:23:47;13.50;;;3.83;;
19747;SDS011;10032;51.386;12.516;2023-02-24T06:26:13;8.43;;;2.97;;
19747;SDS011;10032;51.386;12.516;2023-02-24T06:28:43;3.83;;;2.23;;
19747;SDS011;10032;51.386;12.516;2023-02-24T06:31:10;3.90;;;2.00;;
19747;SDS011;10032;51.386;12.516;2023-02-24T06:33:38;12.40;;;2.37;;
19747;SDS011;10032;51.386;12.516;2023-02-24T06:36:04;7.20;;;3.40;;
19747;SDS011;10032;51.386;12.516;2023-02-24T06:38:31;7.60;;;2.90;;
19747;SDS011;10032;51.386;12.516;2023-02-24T06:40:58;8.57;;;2.70;;
19747;SDS011;10032;51.386;12.516;2023-02-24T06:43:27;12.77;;;2.83;;
19747;SDS011;10032;51.386;12.516;2023-02-24T06:45:52;9.63;;;2.00;;
19747;SDS011;10032;51.386;12.516;2023-02-24T06:48:19;7.87;;;3.40;;
19747;SDS011;10032;51.386;12.516;2023-02-24T06:50:45;5.90;;;2.40;;
19747;SDS011;10032;51.386;12.516;2023-02-24T06:53:10;9.53;;;3.60;;
19747;SDS011;10032;51.386;12.516;2023-02-24T06:55:44;5.53;;;2.43;;
19747;SDS011;10032;51.386;12.516;2023-02-24T06:58:17;6.67;;;2.87;;
19747;SDS011;10032;51.386;12.516;2023-02-24T07:00:44;7.93;;;2.80;;
19747;SDS011;10032;51.386;12.516;2023-02-24T07:03:21;6.40;;;2.50;;
19747;SDS011;10032;51.386;12.516;2023-02-24T07:06:03;6.43;;;1.93;;
19747;SDS011;10032;51.386;12.516;2023-02-24T07:08:44;6.20;;;2.13;;
19747;SDS011;10032;51.386;12.516;2023-02-24T07:11:11;9.93;;;2.27;;
19747;SDS011;10032;51.386;12.516;2023-02-24T07:13:38;7.97;;;2.90;;
19747;SDS011;10032;51.386;12.516;2023-02-24T07:16:05;7.27;;;2.00;;
19747;SDS011;10032;51.386;12.516;2023-02-24T07:18:34;5.30;;;2.40;;
19747;SDS011;10032;51.386;12.516;2023-02-24T07:21:04;6.23;;;2.53;;
19747;SDS011;10032;51.386;12.516;2023-02-24T07:23:35;6.83;;;2.63;;
19747;SDS011;10032;51.386;12.516;2023-02-24T07:26:05;8.63;;;2.53;;
19747;SDS011;10032;51.386;12.516;2023-02-24T07:28:36;5.43;;;2.90;;
19747;SDS011;10032;51.386;12.516;2023-02-24T07:31:13;9.63;;;3.03;;
19747;SDS011;10032;51.386;12.516;2023-02-24T07:33:44;8.20;;;2.83;;
19747;SDS011;10032;51.386;12.516;2023-02-24T07:36:12;9.47;;;2.70;;
19747;SDS011;10032;51.386;12.516;2023-02-24T07:38:40;12.93;;;3.30;;
19747;SDS011;10032;51.386;12.516;2023-02-24T07:41:07;5.97;;;3.07;;
19747;SDS011;10032;51.386;12.516;2023-02-24T07:43:37;9.73;;;2.67;;
19747;SDS011;10032;51.386;12.516;2023-02-24T07:46:06;4.57;;;2.30;;
19747;SDS011;10032;51.386;12.516;2023-02-24T07:48:32;8.93;;;2.60;;
19747;SDS011;10032;51.386;12.516;2023-02-24T07:51:00;8.60;;;2.90;;
19747;SDS011;10032;51.386;12.516;2023-02-24T07:53:26;5.57;;;2.23;;
19747;SDS011;10032;51.386;12.516;2023-02-24T07:55:52;8.33;;;3.07;;
19747;SDS011;10032;51.386;12.516;2023-02-24T07:58:18;9.53;;;3.10;;
19747;SDS011;10032;51.386;12.516;2023-02-24T08:00:45;11.67;;;5.43;;
19747;SDS011;10032;51.386;12.516;2023-02-24T08:03:32;8.50;;;2.83;;
19747;SDS011;10032;51.386;12.516;2023-02-24T08:05:58;11.83;;;3.40;;
19747;SDS011;10032;51.386;12.516;2023-02-24T08:08:37;8.80;;;2.80;;
19747;SDS011;10032;51.386;12.516;2023-02-24T08:11:22;10.90;;;3.67;;
19747;SDS011;10032;51.386;12.516;2023-02-24T08:13:51;9.27;;;3.33;;
19747;SDS011;10032;51.386;12.516;2023-02-24T08:16:17;7.20;;;3.30;;
19747;SDS011;10032;51.386;12.516;2023-02-24T08:18:44;8.57;;;3.50;;
19747;SDS011;10032;51.386;12.516;2023-02-24T08:21:16;9.77;;;4.00;;
19747;SDS011;10032;51.386;12.516;2023-02-24T08:23:44;10.20;;;3.40;;
19747;SDS011;10032;51.386;12.516;2023-02-24T08:26:11;7.97;;;2.80;;
19747;SDS011;10032;51.386;12.516;2023-02-24T08:28:39;6.23;;;3.03;;
19747;SDS011;10032;51.386;12.516;2023-02-24T08:31:05;5.37;;;2.70;;
19747;SDS011;10032;51.386;12.516;2023-02-24T08:33:31;16.00;;;3.93;;
19747;SDS011;10032;51.386;12.516;2023-02-24T08:35:56;7.30;;;3.13;;
19747;SDS011;10032;51.386;12.516;2023-02-24T08:38:25;11.43;;;3.50;;
19747;SDS011;10032;51.386;12.516;2023-02-24T08:41:03;9.47;;;3.57;;
19747;SDS011;10032;51.386;12.516;2023-02-24T08:43:31;19.03;;;3.90;;
19747;SDS011;10032;51.386;12.516;2023-02-24T08:46:12;8.67;;;3.13;;
19747;SDS011;10032;51.386;12.516;2023-02-24T08:48:44;9.77;;;3.07;;
19747;SDS011;10032;51.386;12.516;2023-02-24T08:53:55;6.83;;;2.73;;
19747;SDS011;10032;51.386;12.516;2023-02-24T08:56:23;7.17;;;3.57;;
19747;SDS011;10032;51.386;12.516;2023-02-24T08:58:53;8.07;;;3.17;;
19747;SDS011;10032;51.386;12.516;2023-02-24T09:01:29;10.97;;;4.83;;
19747;SDS011;10032;51.386;12.516;2023-02-24T09:04:05;14.83;;;3.83;;
19747;SDS011;10032;51.386;12.516;2023-02-24T09:09:07;7.23;;;2.83;;
19747;SDS011;10032;51.386;12.516;2023-02-24T09:14:14;10.83;;;4.20;;
19747;SDS011;10032;51.386;12.516;2023-02-24T09:16:42;7.33;;;4.33;;
19747;SDS011;10032;51.386;12.516;2023-02-24T09:22:12;3.37;;;2.10;;
19747;SDS011;10032;51.386;12.516;2023-02-24T09:24:39;5.00;;;2.67;;
19747;SDS011;10032;51.386;12.516;2023-02-24T09:27:06;8.93;;;2.93;;
19747;SDS011;10032;51.386;12.516;2023-02-24T09:29:31;5.40;;;2.50;;
19747;SDS011;10032;51.386;12.516;2023-02-24T09:32:13;8.80;;;3.07;;
19747;SDS011;10032;51.386;12.516;2023-02-24T09:34:39;7.20;;;3.00;;
19747;SDS011;10032;51.386;12.516;2023-02-24T09:37:12;7.03;;;2.80;;
19747;SDS011;10032;51.386;12.516;2023-02-24T09:39:51;6.73;;;2.83;;
19747;SDS011;10032;51.386;12.516;2023-02-24T09:42:21;6.50;;;3.50;;
19747;SDS011;10032;51.386;12.516;2023-02-24T09:44:53;6.43;;;3.07;;
19747;SDS011;10032;51.386;12.516;2023-02-24T09:47:23;5.70;;;2.60;;
19747;SDS011;10032;51.386;12.516;2023-02-24T09:50:16;4.87;;;2.57;;
19747;SDS011;10032;51.386;12.516;2023-02-24T09:52:51;5.80;;;2.53;;
19747;SDS011;10032;51.386;12.516;2023-02-24T10:00:49;7.60;;;3.60;;
19747;SDS011;10032;51.386;12.516;2023-02-24T10:06:14;6.40;;;2.70;;
19747;SDS011;10032;51.386;12.516;2023-02-24T10:08:55;5.70;;;3.00;;
19747;SDS011;10032;51.386;12.516;2023-02-24T10:11:22;4.77;;;3.10;;
19747;SDS011;10032;51.386;12.516;2023-02-24T10:14:02;6.00;;;2.97;;
19747;SDS011;10032;51.386;12.516;2023-02-24T10:16:31;5.80;;;3.77;;
19747;SDS011;10032;51.386;12.516;2023-02-24T10:19:13;10.63;;;4.13;;
19747;SDS011;10032;51.386;12.516;2023-02-24T10:24:48;3.73;;;2.73;;
19747;SDS011;10032;51.386;12.516;2023-02-24T10:32:47;5.97;;;3.67;;
19747;SDS011;10032;51.386;12.516;2023-02-24T10:35:23;7.90;;;3.67;;
19747;SDS011;10032;51.386;12.516;2023-02-24T10:37:53;10.03;;;4.30;;
19747;SDS011;10032;51.386;12.516;2023-02-24T10:40:24;6.00;;;4.07;;
19747;SDS011;10032;51.386;12.516;2023-02-24T10:43:07;7.90;;;4.27;;
19747;SDS011;10032;51.386;12.516;2023-02-24T10:45:36;8.20;;;4.07;;
19747;SDS011;10032;51.386;12.516;2023-02-24T10:48:09;6.40;;;4.00;;
19747;SDS011;10032;51.386;12.516;2023-02-24T10:50:40;8.63;;;4.20;;
19747;SDS011;10032;51.386;12.516;2023-02-24T10:53:10;7.43;;;4.43;;
19747;SDS011;10032;51.386;12.516;2023-02-24T10:55:50;6.77;;;4.33;;
19747;SDS011;10032;51.386;12.516;2023-02-24T10:58:33;6.47;;;4.40;;
19747;SDS011;10032;51.386;12.516;2023-02-24T11:01:12;5.73;;;3.87;;
19747;SDS011;10032;51.386;12.516;2023-02-24T11:06:37;7.40;;;3.70;;
19747;SDS011;10032;51.386;12.516;2023-02-24T11:09:16;7.23;;;4.03;;
19747;SDS011;10032;51.386;12.516;2023-02-24T11:11:46;6.83;;;4.23;;
19747;SDS011;10032;51.386;12.516;2023-02-24T11:14:31;5.53;;;3.43;;
19747;SDS011;10032;51.386;12.516;2023-02-24T11:17:21;11.83;;;3.63;;
19747;SDS011;10032;51.386;12.516;2023-02-24T11:20:03;6.90;;;3.77;;
19747;SDS011;10032;51.386;12.516;2023-02-24T11:22:38;7.97;;;3.57;;
19747;SDS011;10032;51.386;12.516;2023-02-24T11:25:07;4.87;;;3.03;;
19747;SDS011;10032;51.386;12.516;2023-02-24T11:27:42;4.60;;;2.57;;
19747;SDS011;10032;51.386;12.516;2023-02-24T11:32:57;2.67;;;2.10;;
19747;SDS011;10032;51.386;12.516;2023-02-24T11:35:47;3.27;;;2.30;;
19747;SDS011;10032;51.386;12.516;2023-02-24T11:41:07;6.97;;;2.93;;
19747;SDS011;10032;51.386;12.516;2023-02-24T11:44:02;3.63;;;2.73;;
19747;SDS011;10032;51.386;12.516;2023-02-24T11:46:36;4.37;;;2.17;;
19747;SDS011;10032;51.386;12.516;2023-02-24T11:49:17;4.60;;;2.50;;
19747;SDS011;10032;51.386;12.516;2023-02-24T11:51:51;10.70;;;2.83;;
19747;SDS011;10032;51.386;12.516;2023-02-24T11:54:19;6.17;;;2.77;;
19747;SDS011;10032;51.386;12.516;2023-02-24T11:56:49;6.33;;;2.60;;
19747;SDS011;10032;51.386;12.516;2023-02-24T12:02:04;7.43;;;2.73;;
19747;SDS011;10032;51.386;12.516;2023-02-24T12:07:52;3.83;;;2.47;;
19747;SDS011;10032;51.386;12.516;2023-02-24T12:10:24;6.23;;;3.33;;
19747;SDS011;10032;51.386;12.516;2023-02-24T12:16:01;4.80;;;2.47;;
19747;SDS011;10032;51.386;12.516;2023-02-24T12:18:38;2.83;;;2.13;;
19747;SDS011;10032;51.386;12.516;2023-02-24T12:23:43;10.30;;;3.30;;
19747;SDS011;10032;51.386;12.516;2023-02-24T12:26:14;7.10;;;2.97;;
19747;SDS011;10032;51.386;12.516;2023-02-24T12:48:27;5.43;;;2.37;;
19747;SDS011;10032;51.386;12.516;2023-02-24T12:54:10;6.20;;;3.23;;
19747;SDS011;10032;51.386;12.516;2023-02-24T12:59:46;8.13;;;2.60;;
19747;SDS011;10032;51.386;12.516;2023-02-24T13:07:49;5.63;;;3.03;;
19747;SDS011;10032;51.386;12.516;2023-02-24T13:13:41;6.00;;;3.07;;
19747;SDS011;10032;51.386;12.516;2023-02-24T13:16:10;6.17;;;2.70;;
19747;SDS011;10032;51.386;12.516;2023-02-24T13:18:36;12.17;;;3.23;;
19747;SDS011;10032;51.386;12.516;2023-02-24T13:21:06;6.67;;;3.03;;
19747;SDS011;10032;51.386;12.516;2023-02-24T13:23:32;3.90;;;2.30;;
19747;SDS011;10032;51.386;12.516;2023-02-24T13:25:57;7.43;;;2.87;;
19747;SDS011;10032;51.386;12.516;2023-02-24T13:28:24;3.63;;;2.03;;
19747;SDS011;10032;51.386;12.516;2023-02-24T13:30:56;5.30;;;2.50;;
19747;SDS011;10032;51.386;12.516;2023-02-24T13:33:34;2.87;;;2.17;;
19747;SDS011;10032;51.386;12.516;2023-02-24T13:38:35;4.93;;;2.33;;
19747;SDS011;10032;51.386;12.516;2023-02-24T13:43:54;6.13;;;2.37;;
19747;SDS011;10032;51.386;12.516;2023-02-24T13:46:25;4.47;;;2.70;;
19747;SDS011;10032;51.386;12.516;2023-02-24T13:54:22;4.40;;;3.30;;
19747;SDS011;10032;51.386;12.516;2023-02-24T14:00:05;3.37;;;2.33;;
19747;SDS011;10032;51.386;12.516;2023-02-24T14:02:42;3.73;;;2.87;;
19747;SDS011;10032;51.386;12.516;2023-02-24T14:05:10;9.17;;;3.20;;
19747;SDS011;10032;51.386;12.516;2023-02-24T14:07:47;4.77;;;3.10;;
19747;SDS011;10032;51.386;12.516;2023-02-24T14:10:21;7.47;;;3.23;;
19747;SDS011;10032;51.386;12.516;2023-02-24T14:12:50;5.67;;;3.20;;
19747;SDS011;10032;51.386;12.516;2023-02-24T14:15:24;7.67;;;2.77;;
19747;SDS011;10032;51.386;12.516;2023-02-24T14:18:02;5.33;;;2.87;;
19747;SDS011;10032;51.386;12.516;2023-02-24T14:20:33;6.20;;;3.10;;
19747;SDS011;10032;51.386;12.516;2023-02-24T14:23:01;6.13;;;3.27;;
19747;SDS011;10032;51.386;12.516;2023-02-24T14:25:29;6.83;;;3.30;;
19747;SDS011;10032;51.386;12.516;2023-02-24T14:28:00;6.03;;;3.40;;
19747;SDS011;10032;51.386;12.516;2023-02-24T14:30:34;6.90;;;3.70;;
19747;SDS011;10032;51.386;12.516;2023-02-24T14:33:05;4.70;;;3.17;;
19747;SDS011;10032;51.386;12.516;2023-02-24T14:35:36;6.07;;;3.40;;
19747;SDS011;10032;51.386;12.516;2023-02-24T14:38:06;5.03;;;3.40;;
19747;SDS011;10032;51.386;12.516;2023-02-24T14:41:01;5.70;;;3.37;;
19747;SDS011;10032;51.386;12.516;2023-02-24T14:43:30;5.57;;;3.37;;
19747;SDS011;10032;51.386;12.516;2023-02-24T14:45:55;8.23;;;4.00;;
19747;SDS011;10032;51.386;12.516;2023-02-24T14:48:28;6.53;;;4.43;;
19747;SDS011;10032;51.386;12.516;2023-02-24T14:50:57;5.33;;;3.37;;
19747;SDS011;10032;51.386;12.516;2023-02-24T14:53:29;5.97;;;3.63;;
19747;SDS011;10032;51.386;12.516;2023-02-24T14:55:59;5.50;;;4.00;;
19747;SDS011;10032;51.386;12.516;2023-02-24T14:58:28;6.53;;;3.80;;
19747;SDS011;10032;51.386;12.516;2023-02-24T15:00:59;7.27;;;5.30;;
19747;SDS011;10032;51.386;12.516;2023-02-24T15:03:44;5.57;;;3.63;;
19747;SDS011;10032;51.386;12.516;2023-02-24T15:06:14;6.87;;;4.03;;
19747;SDS011;10032;51.386;12.516;2023-02-24T15:08:47;6.40;;;3.70;;
19747;SDS011;10032;51.386;12.516;2023-02-24T15:13:45;9.07;;;3.70;;
19747;SDS011;10032;51.386;12.516;2023-02-24T15:18:55;6.27;;;3.63;;
19747;SDS011;10032;51.386;12.516;2023-02-24T15:21:33;5.97;;;3.37;;
19747;SDS011;10032;51.386;12.516;2023-02-24T15:24:25;6.63;;;4.20;;
19747;SDS011;10032;51.386;12.516;2023-02-24T15:26:52;4.73;;;3.63;;
19747;SDS011;10032;51.386;12.516;2023-02-24T15:29:22;6.37;;;4.13;;
19747;SDS011;10032;51.386;12.516;2023-02-24T15:31:51;5.57;;;3.40;;
19747;SDS011;10032;51.386;12.516;2023-02-24T15:34:18;7.97;;;4.13;;
19747;SDS011;10032;51.386;12.516;2023-02-24T15:36:46;6.43;;;3.80;;
19747;SDS011;10032;51.386;12.516;2023-02-24T15:39:21;5.10;;;3.23;;
19747;SDS011;10032;51.386;12.516;2023-02-24T15:41:48;5.60;;;4.00;;
19747;SDS011;10032;51.386;12.516;2023-02-24T15:46:51;8.43;;;4.17;;
19747;SDS011;10032;51.386;12.516;2023-02-24T15:49:17;6.80;;;4.37;;
19747;SDS011;10032;51.386;12.516;2023-02-24T15:51:43;5.53;;;4.17;;
19747;SDS011;10032;51.386;12.516;2023-02-24T15:54:14;5.43;;;4.30;;
19747;SDS011;10032;51.386;12.516;2023-02-24T15:56:47;12.63;;;7.47;;
19747;SDS011;10032;51.386;12.516;2023-02-24T15:59:13;11.87;;;7.60;;
19747;SDS011;10032;51.386;12.516;2023-02-24T16:01:40;7.37;;;5.57;;
19747;SDS011;10032;51.386;12.516;2023-02-24T16:04:06;9.07;;;6.50;;
19747;SDS011;10032;51.386;12.516;2023-02-24T16:06:33;7.10;;;5.40;;
19747;SDS011;10032;51.386;12.516;2023-02-24T16:09:06;6.67;;;5.13;;
19747;SDS011;10032;51.386;12.516;2023-02-24T16:11:37;9.67;;;6.60;;
19747;SDS011;10032;51.386;12.516;2023-02-24T16:14:05;9.80;;;6.03;;
19747;SDS011;10032;51.386;12.516;2023-02-24T16:16:38;5.73;;;4.80;;
19747;SDS011;10032;51.386;12.516;2023-02-24T16:19:04;5.53;;;3.77;;
19747;SDS011;10032;51.386;12.516;2023-02-24T16:21:31;6.37;;;4.73;;
19747;SDS011;10032;51.386;12.516;2023-02-24T16:23:56;3.57;;;3.13;;
19747;SDS011;10032;51.386;12.516;2023-02-24T16:26:22;4.37;;;3.70;;
19747;SDS011;10032;51.386;12.516;2023-02-24T16:28:52;3.90;;;2.90;;
19747;SDS011;10032;51.386;12.516;2023-02-24T16:31:19;4.13;;;3.70;;
19747;SDS011;10032;51.386;12.516;2023-02-24T16:33:47;4.07;;;3.00;;
19747;SDS011;10032;51.386;12.516;2023-02-24T16:36:12;4.50;;;2.83;;
19747;SDS011;10032;51.386;12.516;2023-02-24T16:38:38;4.40;;;3.40;;
19747;SDS011;10032;51.386;12.516;2023-02-24T16:41:04;3.33;;;3.03;;
19747;SDS011;10032;51.386;12.516;2023-02-24T16:43:32;2.97;;;2.67;;
19747;SDS011;10032;51.386;12.516;2023-02-24T16:46:00;3.83;;;3.28;;
19747;SDS011;10032;51.386;12.516;2023-02-24T16:48:28;2.23;;;2.03;;
19747;SDS011;10032;51.386;12.516;2023-02-24T16:50:58;2.13;;;1.93;;
19747;SDS011;10032;51.386;12.516;2023-02-24T16:53:25;3.10;;;2.40;;
19747;SDS011;10032;51.386;12.516;2023-02-24T16:55:50;3.90;;;3.23;;
19747;SDS011;10032;51.386;12.516;2023-02-24T16:58:16;5.03;;;2.97;;
19747;SDS011;10032;51.386;12.516;2023-02-24T17:00:43;2.83;;;2.43;;
19747;SDS011;10032;51.386;12.516;2023-02-24T17:05:50;2.90;;;2.70;;
19747;SDS011;10032;51.386;12.516;2023-02-24T17:08:18;3.90;;;2.83;;